Time;durP1;ratioP1;P1;durP2;ratioP2;P2;SDS_P1;SDS_P2;PMS_P1;PMS_P2;Temp;Humidity;BMP_temperature;BMP_pressure;BME280_temperature;BME280_humidity;BME280_pressure;Samples;Min_cycle;Max_cycle;Signal;HPM_P1;HPM_P2
2021/12/07 00:02:05;;;;;;;29.70;16.83;;;;;;;0.70;100.00;100433.88;5048794;28;20582;-73
2021/12/07 00:04:30;;;;;;;26.42;12.38;;;;;;;0.67;100.00;100437.50;5044005;28;20425;-72
2021/12/07 00:06:56;;;;;;;24.65;11.95;;;;;;;0.50;100.00;100406.56;5047560;28;20037;-72
2021/12/07 00:09:22;;;;;;;22.40;12.82;;;;;;;0.64;100.00;100439.47;5045032;28;20033;-72
2021/12/07 00:11:49;;;;;;;28.73;14.43;;;;;;;0.60;100.00;100438.81;5047934;28;20036;-72
2021/12/07 00:14:22;;;;;;;31.48;15.60;;;;;;;0.57;100.00;100434.66;5046678;28;20033;-72
2021/12/07 00:16:47;;;;;;;35.42;13.70;;;;;;;0.57;100.00;100434.66;5039011;28;20040;-72
2021/12/07 00:19:14;;;;;;;33.97;16.63;;;;;;;0.54;100.00;100431.41;5046274;28;20029;-73
2021/12/07 00:21:42;;;;;;;27.83;12.88;;;;;;;0.51;100.00;100434.19;5046021;28;20036;-73
2021/12/07 00:24:08;;;;;;;27.63;11.75;;;;;;;0.54;100.00;100428.81;5045139;28;20381;-73
2021/12/07 00:26:34;;;;;;;31.95;15.80;;;;;;;0.49;100.00;100436.88;5041737;28;20079;-73
2021/12/07 00:29:02;;;;;;;25.55;14.15;;;;;;;0.44;100.00;100433.75;5051974;28;20029;-73
2021/12/07 00:31:35;;;;;;;27.13;13.55;;;;;;;0.43;100.00;100426.88;5053181;28;20518;-72
2021/12/07 00:34:14;;;;;;;25.70;13.73;;;;;;;0.30;100.00;100405.19;5043226;28;20037;-72
2021/12/07 00:36:47;;;;;;;26.17;11.60;;;;;;;0.38;100.00;100419.38;5046145;28;20400;-72
2021/12/07 00:39:16;;;;;;;26.77;15.13;;;;;;;0.39;100.00;100421.06;5040223;28;20021;-73
2021/12/07 00:41:41;;;;;;;33.88;12.85;;;;;;;0.39;100.00;100425.38;5048357;28;20103;-73
2021/12/07 00:44:07;;;;;;;34.85;14.13;;;;;;;0.36;100.00;100425.59;5043098;28;20042;-73
2021/12/07 00:46:34;;;;;;;24.38;13.93;;;;;;;0.37;100.00;100432.44;5043198;28;20444;-73
2021/12/07 00:49:00;;;;;;;28.98;13.82;;;;;;;0.39;100.00;100436.63;5045438;28;20061;-73
2021/12/07 00:51:26;;;;;;;30.27;14.23;;;;;;;0.43;100.00;100437.25;5050058;28;20033;-72
2021/12/07 00:53:52;;;;;;;37.30;17.38;;;;;;;0.40;100.00;100438.28;5045347;28;20028;-73
2021/12/07 00:56:18;;;;;;;32.95;15.40;;;;;;;0.38;100.00;100440.13;5058536;28;20067;-73
2021/12/07 00:58:43;;;;;;;32.08;14.27;;;;;;;0.39;100.00;100435.78;5061142;28;20021;-73
2021/12/07 01:01:13;;;;;;;23.90;13.70;;;;;;;0.35;100.00;100444.72;5039018;28;20033;-71
2021/12/07 01:03:39;;;;;;;26.23;14.55;;;;;;;0.33;100.00;100436.19;5047778;28;20020;-71
2021/12/07 01:06:28;;;;;;;29.50;15.02;;;;;;;0.30;100.00;100447.56;5049694;28;20119;-73
2021/12/07 01:25:12;;;;;;;26.45;14.60;;;;;;;0.17;100.00;100462.22;5042786;28;20044;-72
2021/12/07 01:27:38;;;;;;;27.00;13.80;;;;;;;0.09;100.00;100449.72;5040242;28;20014;-73
2021/12/07 01:30:34;;;;;;;33.05;13.93;;;;;;;0.13;100.00;100464.19;5048897;28;20043;-73
2021/12/07 01:39:28;;;;;;;25.95;13.13;;;;;;;-0.17;100.00;100458.19;5041467;28;20521;-73
2021/12/07 01:41:42;;;;;;;23.42;11.73;;;;;;;-0.15;100.00;100474.50;5045000;28;20568;-73
2021/12/07 02:00:26;;;;;;;31.95;12.93;;;;;;;-0.49;100.00;100469.53;5041784;28;20019;-73
2021/12/07 02:02:52;;;;;;;26.13;11.90;;;;;;;-0.58;100.00;100453.69;5040922;28;20032;-74
2021/12/07 02:05:17;;;;;;;33.10;13.98;;;;;;;-0.57;100.00;100471.72;5038756;28;20037;-75
2021/12/07 02:07:43;;;;;;;33.35;14.60;;;;;;;-0.58;100.00;100472.66;5046287;28;20056;-75
2021/12/07 02:10:14;;;;;;;37.25;16.27;;;;;;;-0.59;100.00;100470.97;5056961;28;20040;-75
2021/12/07 02:12:48;;;;;;;30.05;14.40;;;;;;;-0.63;100.00;100467.75;5038870;28;20036;-75
2021/12/07 02:15:17;;;;;;;27.15;12.43;;;;;;;-0.64;100.00;100468.66;5047626;28;20065;-75
2021/12/07 02:17:43;;;;;;;26.88;12.00;;;;;;;-0.64;100.00;100471.25;5042220;28;20048;-75
2021/12/07 02:20:11;;;;;;;18.70;9.25;;;;;;;-0.84;100.00;100449.06;5037279;28;20394;-75
2021/12/07 02:22:37;;;;;;;33.85;14.15;;;;;;;-0.85;100.00;100456.91;5042053;28;20043;-75
2021/12/07 02:25:06;;;;;;;35.00;13.98;;;;;;;-0.69;100.00;100472.44;5038968;28;20493;-76
2021/12/07 02:27:33;;;;;;;29.25;13.32;;;;;;;-0.85;100.00;100452.59;5039666;28;20370;-75
2021/12/07 02:29:58;;;;;;;28.63;12.68;;;;;;;-0.72;100.00;100459.66;5044905;28;20065;-75
2021/12/07 02:32:24;;;;;;;22.52;10.48;;;;;;;-0.75;100.00;100458.06;5043206;28;20060;-75
2021/12/07 02:34:59;;;;;;;29.73;12.43;;;;;;;-0.84;100.00;100443.03;5038286;28;20025;-75
2021/12/07 02:37:27;;;;;;;21.77;11.27;;;;;;;-0.67;100.00;100475.78;5030162;28;20480;-75
2021/12/07 02:39:53;;;;;;;34.30;13.98;;;;;;;-0.80;100.00;100449.72;5037129;28;20096;-77
2021/12/07 02:42:19;;;;;;;30.95;14.20;;;;;;;-0.72;100.00;100464.81;5039120;28;20037;-76
2021/12/07 02:44:45;;;;;;;32.25;12.70;;;;;;;-0.74;100.00;100458.91;5048131;28;20029;-76
2021/12/07 02:47:11;;;;;;;29.40;12.93;;;;;;;-0.67;100.00;100471.44;5041327;28;20052;-75
2021/12/07 02:49:36;;;;;;;34.55;14.73;;;;;;;-0.72;100.00;100463.09;5047079;28;20124;-75
2021/12/07 02:52:03;;;;;;;31.40;11.48;;;;;;;-0.57;100.00;100482.09;5041107;28;20041;-75
2021/12/07 02:54:31;;;;;;;29.83;11.90;;;;;;;-0.51;100.00;100486.94;5040714;28;20055;-77
2021/12/07 02:56:57;;;;;;;33.05;12.65;;;;;;;-0.62;100.00;100468.56;5050214;28;20025;-75
2021/12/07 02:59:23;;;;;;;32.75;15.15;;;;;;;-0.52;100.00;100502.56;5049662;28;20460;-75
2021/12/07 03:02:01;;;;;;;32.92;14.88;;;;;;;-0.58;100.00;100496.00;5041470;28;20167;-75
2021/12/07 03:04:43;;;;;;;25.98;11.95;;;;;;;-0.54;100.00;100500.09;5048163;28;20409;-75
2021/12/07 03:28:25;;;;;;;32.65;14.70;;;;;;;-0.53;100.00;100475.81;5048675;28;20044;-75
2021/12/07 03:30:51;;;;;;;27.20;11.80;;;;;;;-0.37;100.00;100499.13;5052345;28;20482;-76
2021/12/07 03:33:16;;;;;;;24.05;12.55;;;;;;;-0.33;100.00;100504.94;5047610;28;20037;-75
2021/12/07 03:35:42;;;;;;;42.25;16.58;;;;;;;-0.35;100.00;100502.44;5043681;28;20560;-75
2021/12/07 03:38:08;;;;;;;28.20;13.25;;;;;;;-0.35;100.00;100496.41;5042166;28;20033;-75
2021/12/07 03:40:34;;;;;;;31.83;14.98;;;;;;;-0.34;100.00;100493.75;5050473;28;20047;-75
2021/12/07 03:43:00;;;;;;;23.63;12.32;;;;;;;-0.41;100.00;100479.47;5043645;28;20104;-75
2021/12/07 03:45:27;;;;;;;31.35;14.88;;;;;;;-0.35;100.00;100493.81;5052523;28;20477;-75
2021/12/07 03:47:53;;;;;;;35.22;15.07;;;;;;;-0.24;100.00;100519.97;5044014;28;20045;-75
2021/12/07 03:50:22;;;;;;;28.50;11.77;;;;;;;-0.21;100.00;100514.63;5044600;28;20047;-75
2021/12/07 03:52:50;;;;;;;28.50;12.85;;;;;;;-0.19;100.00;100517.13;5040815;28;20106;-75
2021/12/07 03:55:16;;;;;;;27.75;12.93;;;;;;;-0.22;100.00;100510.34;5044527;28;20040;-75
2021/12/07 03:57:41;;;;;;;36.55;17.30;;;;;;;-0.21;100.00;100510.25;5046047;28;20039;-75
2021/12/07 04:00:11;;;;;;;30.63;14.05;;;;;;;-0.19;100.00;100507.59;5048721;28;20021;-75
2021/12/07 04:02:40;;;;;;;32.30;15.00;;;;;;;-0.17;100.00;100525.63;5048301;28;20037;-75
2021/12/07 04:05:14;;;;;;;29.63;13.50;;;;;;;-0.19;100.00;100522.31;5044171;28;20542;-76
2021/12/07 04:07:40;;;;;;;33.72;15.48;;;;;;;-0.29;100.00;100501.25;5044495;28;20024;-75
2021/12/07 04:10:09;;;;;;;24.58;12.95;;;;;;;-0.19;100.00;100527.50;5030206;28;20120;-75
2021/12/07 04:12:35;;;;;;;23.25;11.57;;;;;;;-0.14;100.00;100526.31;5040685;28;20053;-75
2021/12/07 04:15:01;;;;;;;27.17;11.82;;;;;;;-0.15;100.00;100529.84;5053380;28;20063;-76
2021/12/07 04:17:27;;;;;;;30.58;14.00;;;;;;;-0.09;100.00;100547.63;5048472;28;20075;-76
2021/12/07 04:19:52;;;;;;;31.08;15.00;;;;;;;-0.16;100.00;100535.94;5049091;28;20033;-75
2021/12/07 04:22:18;;;;;;;25.48;11.90;;;;;;;-0.21;100.00;100520.63;5041986;28;20385;-74
2021/12/07 04:24:43;;;;;;;20.60;11.27;;;;;;;-0.13;100.00;100529.72;5042968;28;20029;-74
2021/12/07 04:27:09;;;;;;;26.50;13.32;;;;;;;-0.12;100.00;100541.78;5038332;28;20443;-75
2021/12/07 04:29:34;;;;;;;30.20;14.75;;;;;;;-0.07;100.00;100550.13;5046285;28;20107;-75
2021/12/07 04:31:59;;;;;;;24.42;13.25;;;;;;;-0.09;100.00;100545.03;5044126;28;20040;-74
2021/12/07 04:34:25;;;;;;;23.42;12.50;;;;;;;-0.12;100.00;100544.38;5038927;28;20024;-75
2021/12/07 04:36:50;;;;;;;38.72;13.20;;;;;;;-0.26;100.00;100521.81;5049495;28;20116;-74
2021/12/07 04:39:16;;;;;;;30.13;12.55;;;;;;;-0.56;100.00;100483.78;5043147;28;20061;-75
2021/12/07 04:41:43;;;;;;;22.35;11.13;;;;;;;-0.22;100.00;100537.13;5049481;28;20493;-75
2021/12/07 04:44:09;;;;;;;27.58;13.23;;;;;;;-0.25;100.00;100539.06;5048021;28;20077;-75
2021/12/07 04:46:46;;;;;;;30.42;14.32;;;;;;;-0.28;100.00;100534.06;5039214;28;20398;-75
2021/12/07 04:57:43;;;;;;;24.02;11.73;;;;;;;-0.36;100.00;100539.69;5019979;28;20128;-75
2021/12/07 05:00:11;;;;;;;;;;;;;;;-0.35;100.00;100543.09;5030274;28;20164;-74
2021/12/07 05:02:39;;;;;;;31.25;12.57;;;;;;;-0.40;100.00;100543.38;5040971;28;19920;-75
2021/12/07 05:05:05;;;;;;;25.88;12.02;;;;;;;-0.45;100.00;100540.22;5039706;28;20029;-75
2021/12/07 05:07:38;;;;;;;30.90;12.45;;;;;;;-0.48;100.00;100536.03;5038691;28;20029;-75
2021/12/07 05:10:22;;;;;;;28.77;12.50;;;;;;;-0.54;100.00;100525.19;5047602;28;20136;-75
2021/12/07 05:15:28;;;;;;;;;;;;;;;-0.54;100.00;100546.75;5044467;28;20503;-74
2021/12/07 05:39:28;;;;;;;23.73;10.55;;;;;;;-0.51;100.00;100585.44;5040246;28;20453;-75
2021/12/07 05:41:54;;;;;;;27.77;11.55;;;;;;;-0.63;100.00;100560.22;5042406;28;20038;-75
2021/12/07 05:44:19;;;;;;;21.52;11.75;;;;;;;-0.45;100.00;100579.91;5011709;28;20029;-75
2021/12/07 05:46:45;;;;;;;26.50;12.70;;;;;;;-0.43;100.00;100577.25;5032515;28;20021;-75
2021/12/07 05:49:10;;;;;;;28.60;11.13;;;;;;;-0.42;100.00;100584.09;5037187;28;20045;-74
2021/12/07 05:51:36;;;;;;;23.75;10.20;;;;;;;-0.43;100.00;100582.44;5053779;28;20576;-74
2021/12/07 05:54:02;;;;;;;23.30;9.48;;;;;;;-0.46;100.00;100588.63;5038948;28;20029;-76
2021/12/07 05:56:28;;;;;;;27.33;12.35;;;;;;;-0.47;100.00;100589.53;5044225;28;20585;-74
2021/12/07 05:58:53;;;;;;;22.30;9.75;;;;;;;-0.47;100.00;100584.34;5040893;28;20033;-76
2021/12/07 06:01:18;;;;;;;24.58;11.98;;;;;;;-0.48;100.00;100594.81;5037945;28;22896;-75
2021/12/07 06:03:44;;;;;;;23.15;10.25;;;;;;;-0.39;100.00;100602.09;5038477;28;20067;-74
2021/12/07 06:06:09;;;;;;;22.35;10.02;;;;;;;-0.47;100.00;100592.13;5050632;28;20033;-75
2021/12/07 06:08:35;;;;;;;19.40;9.30;;;;;;;-0.39;100.00;100617.66;5016078;28;20028;-74
2021/12/07 06:11:00;;;;;;;14.57;8.75;;;;;;;-0.55;100.00;100583.94;5038012;28;20029;-75
2021/12/07 06:13:27;;;;;;;22.10;10.88;;;;;;;-0.33;100.00;100614.69;5022364;28;23424;-75
2021/12/07 06:15:53;;;;;;;20.13;9.00;;;;;;;-0.40;100.00;100594.38;5032608;28;20065;-75
2021/12/07 06:18:18;;;;;;;22.25;9.23;;;;;;;-0.44;100.00;100578.16;5031801;28;20037;-75
2021/12/07 06:20:44;;;;;;;21.05;10.15;;;;;;;-0.27;100.00;100591.00;5033814;28;20029;-75
2021/12/07 06:23:11;;;;;;;17.83;8.10;;;;;;;-0.07;100.00;100615.81;5032865;28;20025;-77
2021/12/07 06:25:37;;;;;;;18.35;8.98;;;;;;;0.12;100.00;100625.16;5032962;28;20075;-75
2021/12/07 06:28:02;;;;;;;18.63;8.85;;;;;;;0.14;100.00;100631.09;5028195;28;20132;-77
2021/12/07 06:30:28;;;;;;;14.75;7.35;;;;;;;0.16;100.00;100632.66;5039516;28;20029;-77
2021/12/07 06:32:53;;;;;;;14.20;7.07;;;;;;;0.11;100.00;100621.72;5033020;28;20061;-75
2021/12/07 06:35:19;;;;;;;20.00;8.02;;;;;;;0.19;100.00;100616.06;5034328;28;20055;-75
2021/12/07 06:37:44;;;;;;;13.95;5.85;;;;;;;0.16;100.00;100637.88;5049939;28;20032;-75
2021/12/07 06:40:11;;;;;;;12.68;6.55;;;;;;;0.14;100.00;100623.31;5036872;28;20382;-75
2021/12/07 06:42:38;;;;;;;15.27;7.00;;;;;;;0.12;100.00;100625.16;5031745;28;20141;-75
2021/12/07 06:45:10;;;;;;;16.48;7.90;;;;;;;0.16;100.00;100631.84;5031506;28;20036;-75
2021/12/07 06:47:36;;;;;;;12.45;6.35;;;;;;;0.06;100.00;100607.34;5024801;28;20053;-76
2021/12/07 06:50:05;;;;;;;11.05;6.50;;;;;;;0.13;100.00;100626.81;5034642;28;20063;-75
2021/12/07 06:52:31;;;;;;;21.90;8.00;;;;;;;0.18;100.00;100637.78;5034394;28;20029;-75
2021/12/07 06:54:58;;;;;;;16.77;8.15;;;;;;;0.13;100.00;100637.19;5035056;28;20029;-75
2021/12/07 06:57:24;;;;;;;17.50;8.05;;;;;;;0.20;100.00;100649.75;5043122;28;20060;-75
2021/12/07 06:59:49;;;;;;;10.32;5.45;;;;;;;-0.10;100.00;100597.00;5024267;28;20071;-75
2021/12/07 07:02:15;;;;;;;14.02;8.10;;;;;;;0.22;100.00;100647.06;5043935;28;20087;-75
2021/12/07 07:04:40;;;;;;;15.30;7.43;;;;;;;0.07;100.00;100622.00;5039385;28;20036;-75
2021/12/07 07:07:05;;;;;;;11.90;5.35;;;;;;;0.27;100.00;100650.22;5043992;28;20044;-75
2021/12/07 07:09:31;;;;;;;10.23;5.43;;;;;;;0.25;100.00;100657.25;5043343;28;20047;-75
2021/12/07 07:11:56;;;;;;;14.85;9.20;;;;;;;0.28;100.00;100670.03;5044630;28;20044;-75
2021/12/07 07:14:22;;;;;;;15.02;8.40;;;;;;;0.31;100.00;100680.28;5038658;28;20052;-75
2021/12/07 07:16:47;;;;;;;10.57;4.85;;;;;;;0.32;100.00;100676.75;5044753;28;20524;-75
2021/12/07 07:19:13;;;;;;;8.82;4.18;;;;;;;0.22;100.00;100657.44;5045660;28;20048;-74
2021/12/07 07:21:38;;;;;;;7.32;3.95;;;;;;;0.32;100.00;100683.69;5041484;28;20033;-75
2021/12/07 07:24:04;;;;;;;12.40;4.95;;;;;;;0.33;100.00;100686.22;5036602;28;20029;-74
2021/12/07 07:26:30;;;;;;;7.10;3.75;;;;;;;0.26;100.00;100676.25;5047175;28;20035;-74
2021/12/07 07:28:55;;;;;;;9.88;4.55;;;;;;;0.44;100.00;100700.34;5036914;28;20034;-75
2021/12/07 07:31:21;;;;;;;13.20;5.78;;;;;;;0.49;100.00;100701.72;5043216;28;20424;-75
2021/12/07 07:33:46;;;;;;;13.85;6.57;;;;;;;0.52;100.00;100706.78;5040012;28;20372;-76
2021/12/07 07:36:11;;;;;;;14.93;6.82;;;;;;;0.55;100.00;100710.94;5041926;28;20030;-73
2021/12/07 07:38:37;;;;;;;15.00;5.93;;;;;;;0.45;100.00;100691.63;5037897;28;21092;-75
2021/12/07 07:41:02;;;;;;;11.38;4.22;;;;;;;0.47;100.00;100687.19;5046766;28;20037;-74
2021/12/07 07:43:29;;;;;;;18.20;5.70;;;;;;;0.57;100.00;100703.91;5039589;28;20057;-75
2021/12/07 07:45:54;;;;;;;16.55;7.32;;;;;;;0.64;100.00;100714.78;5039186;28;20022;-74
2021/12/07 07:48:21;;;;;;;13.02;6.05;;;;;;;0.63;100.00;100724.28;5025032;28;20265;-74
2021/12/07 07:50:48;;;;;;;16.42;6.28;;;;;;;0.57;100.00;100730.69;5042953;28;20047;-74
2021/12/07 07:53:14;;;;;;;14.80;6.22;;;;;;;0.25;100.00;100675.44;5048778;28;20125;-74
2021/12/07 07:55:40;;;;;;;10.85;6.03;;;;;;;0.53;100.00;100736.16;5045199;28;20049;-75
2021/12/07 07:58:06;;;;;;;12.55;5.68;;;;;;;0.40;100.00;100700.50;5039176;28;20096;-74
2021/12/07 08:00:32;;;;;;;11.48;5.78;;;;;;;0.49;100.00;100708.69;5039071;28;20033;-74
2021/12/07 08:02:58;;;;;;;11.63;5.07;;;;;;;0.59;100.00;100723.66;5042746;28;20044;-74
2021/12/07 08:05:24;;;;;;;10.98;4.50;;;;;;;0.56;100.00;100717.78;5043645;28;20037;-74
2021/12/07 08:07:51;;;;;;;13.20;4.72;;;;;;;0.60;100.00;100730.50;5040467;28;20030;-74
2021/12/07 08:10:28;;;;;;;9.85;5.78;;;;;;;0.64;100.00;100720.78;5046512;28;20072;-74
2021/12/07 08:12:54;;;;;;;13.90;5.68;;;;;;;0.65;100.00;100719.84;5051237;28;20067;-74
2021/12/07 08:15:20;;;;;;;15.80;6.05;;;;;;;0.62;100.00;100699.25;5037319;28;20108;-74
2021/12/07 08:17:45;;;;;;;14.10;6.32;;;;;;;0.58;100.00;100706.38;5037903;28;20059;-74
2021/12/07 08:20:11;;;;;;;13.20;5.25;;;;;;;0.75;100.00;100728.78;5040791;28;20059;-74
2021/12/07 08:22:36;;;;;;;11.18;5.43;;;;;;;0.77;100.00;100721.75;5041651;28;20047;-75
2021/12/07 08:25:02;;;;;;;12.60;4.55;;;;;;;0.79;100.00;100719.88;5040578;28;20021;-73
2021/12/07 08:27:28;;;;;;;10.82;4.20;;;;;;;0.77;100.00;100720.91;5046576;28;20493;-75
2021/12/07 08:29:53;;;;;;;14.98;6.28;;;;;;;0.81;100.00;100728.44;5042588;28;20061;-74
2021/12/07 08:32:19;;;;;;;14.27;5.95;;;;;;;0.88;100.00;100731.50;5045361;28;20036;-74
2021/12/07 08:34:44;;;;;;;9.75;5.90;;;;;;;0.84;100.00;100713.59;5040118;28;20061;-74
2021/12/07 08:37:10;;;;;;;11.82;4.55;;;;;;;0.98;100.00;100713.59;5046051;28;20044;-74
2021/12/07 08:39:37;;;;;;;15.70;5.32;;;;;;;1.06;100.00;100721.78;5051994;28;20027;-74
2021/12/07 08:42:03;;;;;;;15.23;5.30;;;;;;;1.14;100.00;100722.16;5042830;28;20519;-74
2021/12/07 08:44:29;;;;;;;9.55;4.78;;;;;;;1.27;100.00;100711.84;5040596;28;20095;-74
2021/12/07 08:46:54;;;;;;;13.30;4.85;;;;;;;1.19;100.00;100701.91;5041191;28;20029;-75
2021/12/07 08:49:21;;;;;;;9.45;5.28;;;;;;;1.27;100.00;100708.44;5042242;28;20025;-75
2021/12/07 08:51:47;;;;;;;9.25;5.85;;;;;;;1.26;100.00;100704.97;5044722;28;20082;-76
2021/12/07 08:59:49;;;;;;;9.82;5.03;;;;;;;1.79;100.00;100720.81;5044193;28;20055;-75
2021/12/07 09:02:21;;;;;;;10.35;5.70;;;;;;;1.92;100.00;100718.25;5042249;28;20478;-75
2021/12/07 09:04:47;;;;;;;9.50;4.70;;;;;;;2.02;100.00;100701.09;5043841;28;20020;-74
2021/12/07 09:07:14;;;;;;;9.48;4.78;;;;;;;2.60;100.00;100699.06;5044187;28;20016;-74
2021/12/07 09:09:42;;;;;;;8.95;4.68;;;;;;;2.40;100.00;100716.03;5033718;28;20047;-74
2021/12/07 09:12:10;;;;;;;7.32;4.75;;;;;;;2.12;100.00;100709.16;5038582;28;20101;-74
2021/12/07 09:14:36;;;;;;;8.18;4.25;;;;;;;2.42;100.00;100735.81;5037543;28;20476;-74
2021/12/07 09:17:04;;;;;;;12.75;5.63;;;;;;;2.52;100.00;100724.78;5040309;28;20111;-74
2021/12/07 09:19:29;;;;;;;7.05;4.10;;;;;;;2.59;100.00;100731.25;5040457;28;20074;-74
2021/12/07 09:21:55;;;;;;;10.95;4.40;;;;;;;2.87;100.00;100697.22;5046432;28;20036;-74
2021/12/07 09:24:20;;;;;;;8.90;4.57;;;;;;;3.76;100.00;100697.19;5039824;28;20018;-74
2021/12/07 09:26:46;;;;;;;10.55;4.60;;;;;;;4.63;97.96;100703.00;5044385;28;20596;-76
2021/12/07 09:29:12;;;;;;;6.45;3.78;;;;;;;5.38;93.12;100683.31;5043675;28;20469;-74
2021/12/07 09:31:38;;;;;;;6.45;3.45;;;;;;;5.96;88.91;100694.44;5033239;28;20030;-73
2021/12/07 09:34:06;;;;;;;7.75;3.70;;;;;;;6.50;84.91;100704.00;5040386;28;20400;-74
2021/12/07 09:36:32;;;;;;;6.53;3.10;;;;;;;7.06;83.71;100709.88;5038372;28;20061;-73
2021/12/07 09:38:58;;;;;;;5.32;3.65;;;;;;;7.57;81.15;100706.31;5039460;28;20521;-73
2021/12/07 09:41:24;;;;;;;7.13;3.97;;;;;;;7.91;79.19;100698.09;5036390;28;20017;-74
2021/12/07 09:43:49;;;;;;;9.05;3.17;;;;;;;7.83;78.61;100691.72;5039876;28;20382;-74
2021/12/07 09:46:15;;;;;;;7.10;3.20;;;;;;;8.08;76.87;100702.69;5036730;28;20054;-76
2021/12/07 09:48:43;;;;;;;5.82;2.67;;;;;;;8.07;78.10;100706.28;5034973;28;20044;-74
2021/12/07 09:51:10;;;;;;;7.68;2.97;;;;;;;8.56;74.99;100701.88;5038226;28;20048;-74
2021/12/07 09:53:36;;;;;;;5.75;3.38;;;;;;;8.92;75.05;100714.41;5033567;28;20028;-76
2021/12/07 09:56:04;;;;;;;5.60;2.70;;;;;;;8.97;73.06;100720.06;5036150;28;20116;-74
2021/12/07 09:58:30;;;;;;;6.75;3.03;;;;;;;9.45;72.59;100712.00;5032444;28;20039;-74
2021/12/07 10:00:56;;;;;;;6.80;3.13;;;;;;;9.44;70.99;100723.50;5022474;28;20398;-74
2021/12/07 10:03:23;;;;;;;6.97;2.88;;;;;;;9.08;72.72;100738.34;5038577;28;20033;-74
2021/12/07 10:05:49;;;;;;;6.15;2.63;;;;;;;9.52;69.84;100745.69;5036761;28;20056;-75
2021/12/07 10:08:15;;;;;;;4.95;2.40;;;;;;;9.28;72.63;100731.22;5033166;28;20072;-75
2021/12/07 10:10:47;;;;;;;7.07;2.90;;;;;;;10.24;69.75;100742.19;5050252;28;20141;-75
2021/12/07 10:13:14;;;;;;;8.10;2.88;;;;;;;11.47;68.04;100719.28;5041918;28;20021;-75
2021/12/07 10:15:40;;;;;;;6.63;2.72;;;;;;;11.58;65.32;100730.56;5043722;28;20088;-74
2021/12/07 10:18:19;;;;;;;6.45;2.90;;;;;;;10.06;68.40;100730.78;5023674;28;20029;-74
2021/12/07 10:20:56;;;;;;;6.20;2.88;;;;;;;9.04;71.76;100739.59;5040012;28;20116;-75
2021/12/07 10:23:51;;;;;;;7.20;2.60;;;;;;;6.89;76.78;100719.97;5038025;28;20021;-75
2021/12/07 10:26:33;;;;;;;8.02;2.55;;;;;;;5.48;83.45;100720.91;5042892;28;20032;-73
2021/12/07 10:29:06;;;;;;;8.68;3.30;;;;;;;5.40;86.68;100745.09;5036679;28;20119;-73
2021/12/07 10:31:47;;;;;;;8.50;2.85;;;;;;;5.14;87.26;100747.09;5049005;28;20025;-73
2021/12/07 10:34:16;;;;;;;11.15;2.42;;;;;;;4.95;89.84;100743.25;5041602;28;20037;-74
2021/12/07 10:36:48;;;;;;;6.65;2.40;;;;;;;4.47;91.40;100745.97;5042418;28;20021;-73
2021/12/07 10:39:23;;;;;;;9.82;3.15;;;;;;;4.94;92.94;100725.03;5038399;28;20401;-74
2021/12/07 10:41:54;;;;;;;8.13;3.00;;;;;;;6.32;88.79;100737.78;5041383;28;20022;-74
2021/12/07 10:44:30;;;;;;;;;;;;;;;6.96;85.19;100734.22;5039181;28;20033;-74
2021/12/07 10:47:00;;;;;;;5.22;2.30;;;;;;;6.86;84.76;100732.50;5042581;28;19913;-74
2021/12/07 10:49:29;;;;;;;8.57;2.95;;;;;;;6.93;85.06;100731.88;5037560;28;20029;-74
2021/12/07 10:52:14;;;;;;;10.00;2.70;;;;;;;7.65;82.26;100748.50;5037679;28;20035;-73
2021/12/07 10:54:39;;;;;;;7.75;2.25;;;;;;;8.83;79.96;100737.97;5036648;28;20043;-73
2021/12/07 10:57:08;;;;;;;10.63;2.55;;;;;;;8.71;77.55;100735.63;5041498;28;20501;-73
2021/12/07 10:59:35;;;;;;;6.88;2.33;;;;;;;8.89;78.11;100739.22;5042230;28;20083;-74
2021/12/07 11:02:12;;;;;;;7.80;2.40;;;;;;;8.90;76.33;100714.53;5040647;28;20032;-74
2021/12/07 11:04:38;;;;;;;6.93;2.78;;;;;;;7.86;78.40;100739.72;5046227;28;20441;-74
2021/12/07 11:07:08;;;;;;;6.20;2.40;;;;;;;6.95;81.55;100713.41;5037903;28;20057;-74
2021/12/07 11:10:21;;;;;;;8.00;2.50;;;;;;;6.80;83.73;100729.44;5038022;28;20072;-74
2021/12/07 11:13:00;;;;;;;5.03;2.17;;;;;;;6.20;85.47;100728.28;5042760;28;20028;-74
2021/12/07 11:15:30;;;;;;;8.80;2.60;;;;;;;5.53;88.60;100729.25;5034714;28;20385;-74
2021/12/07 11:18:03;;;;;;;8.45;2.78;;;;;;;5.34;90.83;100719.38;5041349;28;20119;-74
2021/12/07 11:20:30;;;;;;;8.13;3.35;;;;;;;5.36;91.92;100730.56;5050056;28;20039;-74
2021/12/07 11:23:00;;;;;;;6.85;2.83;;;;;;;5.38;91.86;100733.06;5030995;28;20060;-74
2021/12/07 11:31:32;;;;;;;5.95;2.65;;;;;;;5.27;93.99;100721.66;5034232;28;20056;-74
2021/12/07 11:34:11;;;;;;;8.32;2.97;;;;;;;5.29;94.00;100717.13;5038335;28;20561;-75
2021/12/07 11:36:45;;;;;;;6.13;2.40;;;;;;;5.03;94.69;100705.19;5039328;28;20094;-74
2021/12/07 11:39:47;;;;;;;6.18;3.17;;;;;;;5.01;95.51;100717.56;5033969;28;20382;-73
2021/12/07 11:42:36;;;;;;;;;;;;;;;4.84;95.79;100716.25;5036276;28;20037;-73
2021/12/07 11:45:07;;;;;;;6.15;2.70;;;;;;;4.73;95.98;100704.00;5049870;28;20444;-73
2021/12/07 11:47:42;;;;;;;7.18;2.63;;;;;;;4.61;96.43;100699.69;5043165;28;20117;-75
2021/12/07 11:50:11;;;;;;;6.20;2.40;;;;;;;4.68;96.46;100722.63;5039471;28;20029;-73
2021/12/07 11:52:37;;;;;;;9.80;3.13;;;;;;;4.69;96.79;100713.00;5041860;28;20500;-74
2021/12/07 11:55:04;;;;;;;9.02;3.03;;;;;;;4.63;96.71;100716.06;5043571;28;20029;-74
2021/12/07 11:57:29;;;;;;;13.18;2.58;;;;;;;4.77;96.71;100715.88;5046001;28;20031;-75
2021/12/07 11:59:55;;;;;;;4.75;2.60;;;;;;;4.68;96.52;100690.41;5041119;28;20025;-74
2021/12/07 12:02:22;;;;;;;10.68;2.90;;;;;;;4.77;96.35;100700.19;5037917;28;20098;-75
2021/12/07 12:04:48;;;;;;;7.72;3.08;;;;;;;4.86;96.41;100725.66;5038835;28;20616;-74
2021/12/07 12:07:14;;;;;;;5.47;2.88;;;;;;;4.90;96.62;100719.25;5040689;28;20029;-74
2021/12/07 12:09:46;;;;;;;7.65;3.33;;;;;;;4.80;96.24;100718.25;5034174;28;20119;-74
2021/12/07 12:12:45;;;;;;;7.40;2.45;;;;;;;4.74;96.26;100716.09;5049988;28;20548;-74
2021/12/07 12:15:38;;;;;;;7.35;2.78;;;;;;;4.65;97.07;100716.81;5043464;28;20044;-74
2021/12/07 12:18:41;;;;;;;10.32;3.22;;;;;;;4.66;97.31;100713.22;5044335;28;20030;-74
2021/12/07 12:21:44;;;;;;;4.28;2.53;;;;;;;4.75;98.16;100712.56;5038150;28;20043;-74
2021/12/07 12:24:50;;;;;;;8.50;2.45;;;;;;;4.82;97.40;100708.53;5039096;28;20025;-75
2021/12/07 12:27:33;;;;;;;12.25;3.05;;;;;;;4.84;97.34;100705.78;4986103;28;20502;-74
2021/12/07 12:30:16;;;;;;;9.02;2.97;;;;;;;4.85;96.99;100703.03;4986052;28;20593;-74
2021/12/07 12:32:44;;;;;;;11.88;2.72;;;;;;;4.85;97.14;100702.22;4968992;28;20050;-74
2021/12/07 12:35:11;;;;;;;6.50;3.10;;;;;;;4.76;97.03;100697.69;4986253;28;20034;-74
2021/12/07 12:37:38;;;;;;;10.18;3.22;;;;;;;4.76;97.76;100687.22;4985399;28;20590;-74
2021/12/07 12:40:10;;;;;;;9.05;2.97;;;;;;;4.69;98.71;100689.47;4970171;28;20030;-74
2021/12/07 12:42:45;;;;;;;12.50;3.15;;;;;;;4.71;98.85;100692.81;4991035;28;20034;-74
2021/12/07 12:45:22;;;;;;;6.05;2.83;;;;;;;4.71;98.78;100682.34;4983785;28;20074;-74
2021/12/07 12:48:12;;;;;;;8.85;2.97;;;;;;;4.74;99.24;100684.72;4980821;28;20086;-74
2021/12/07 12:50:43;;;;;;;7.13;2.78;;;;;;;4.80;99.39;100680.81;4982343;28;20049;-74
2021/12/07 12:53:12;;;;;;;11.43;3.10;;;;;;;4.67;99.24;100660.84;4985337;28;20128;-74
2021/12/07 12:55:46;;;;;;;11.63;2.65;;;;;;;4.72;99.18;100682.22;4968048;28;20034;-74
2021/12/07 12:58:17;;;;;;;5.55;2.40;;;;;;;4.70;98.93;100673.69;4968836;28;20066;-74
2021/12/07 13:01:01;;;;;;;11.82;2.83;;;;;;;4.67;99.12;100681.75;4988715;28;21018;-75
2021/12/07 13:03:45;;;;;;;7.68;3.70;;;;;;;4.63;98.88;100676.88;5001684;28;20032;-74
2021/12/07 13:06:24;;;;;;;13.25;2.90;;;;;;;4.48;99.30;100668.41;5042542;28;20041;-74
2021/12/07 13:09:06;;;;;;;7.18;2.78;;;;;;;4.47;99.22;100666.75;5035372;28;20063;-74
2021/12/07 13:11:42;;;;;;;8.18;3.75;;;;;;;4.43;99.91;100663.50;5044297;28;20072;-74